Time;durP1;ratioP1;P1;durP2;ratioP2;P2;SDS_P1;SDS_P2;PMS_P1;PMS_P2;Temp;Humidity;BMP_temperature;BMP_pressure;BME280_temperature;BME280_humidity;BME280_pressure;Samples;Min_cycle;Max_cycle;Signal;HPM_P1;HPM_P2
2024/02/01 00:00:53;;;;;;;;;;;;;;;;;;5097502;28;19908;-71
2024/02/01 00:03:19;;;;;;;;;;;;;;;;;;5079188;28;19916;-72
2024/02/01 00:05:45;;;;;;;;;;;;;;;;;;5097072;28;19912;-72
2024/02/01 00:08:11;;;;;;;;;;;;;;;;;;5097409;28;19954;-72
2024/02/01 00:10:37;;;;;;;;;;;;;;;;;;5097487;28;19995;-72
2024/02/01 00:13:03;;;;;;;;;;;;;;;;;;5096936;28;19909;-72
2024/02/01 00:15:29;;;;;;;;;;;;;;;;;;5079075;28;20445;-72
2024/02/01 00:17:55;;;;;;;;;;;;;;;;;;5097182;28;19920;-72
2024/02/01 00:20:21;;;;;;;;;;;;;;;;;;5097071;28;19917;-72
2024/02/01 00:22:47;;;;;;;;;;;;;;;;;;5096828;28;19920;-72
2024/02/01 00:25:13;;;;;;;;;;;;;;;;;;5096984;28;20376;-72
2024/02/01 00:27:39;;;;;;;;;;;;;;;;;;5096839;28;19954;-72
2024/02/01 00:30:05;;;;;;;;;;;;;;;;;;5096908;28;19981;-72
2024/02/01 00:32:34;;;;;;;;;;;;;;;;;;5096902;28;19908;-71
2024/02/01 00:35:00;;;;;;;;;;;;;;;;;;5096573;28;19923;-72
2024/02/01 00:37:26;;;;;;;;;;;;;;;;;;5078602;28;20226;-72
2024/02/01 00:39:52;;;;;;;;;;;;;;;;;;5078561;28;19950;-72
2024/02/01 00:42:18;;;;;;;;;;;;;;;;;;5096439;28;19974;-72
2024/02/01 00:44:44;;;;;;;;;;;;;;;;;;5096618;28;19916;-72
2024/02/01 00:47:10;;;;;;;;;;;;;;;;;;5096610;28;19908;-71
2024/02/01 00:49:36;;;;;;;;;;;;;;;;;;5077924;28;19908;-71
2024/02/01 00:52:02;;;;;;;;;;;;;;;;;;5096607;28;19915;-71
2024/02/01 00:54:28;;;;;;;;;;;;;;;;;;5078332;28;19908;-70
2024/02/01 00:56:54;;;;;;;;;;;;;;;;;;5095525;28;19912;-70
2024/02/01 00:59:20;;;;;;;;;;;;;;;;;;5096385;28;19908;-70
2024/02/01 01:01:46;;;;;;;;;;;;;;;;;;5095901;28;19911;-70
2024/02/01 01:04:15;;;;;;;;;;;;;;;;;;5096188;28;19916;-71
2024/02/01 01:06:42;;;;;;;;;;;;;;;;;;5096211;28;19915;-70
2024/02/01 01:09:08;;;;;;;;;;;;;;;;;;5077526;28;20021;-71
2024/02/01 01:11:34;;;;;;;;;;;;;;;;;;5096184;28;19947;-71
2024/02/01 01:14:00;;;;;;;;;;;;;;;;;;5096090;28;19948;-71
2024/02/01 01:16:26;;;;;;;;;;;;;;;;;;5095625;28;20334;-71
2024/02/01 01:18:51;;;;;;;;;;;;;;;;;;5095939;28;19998;-70
2024/02/01 01:21:17;;;;;;;;;;;;;;;;;;5096073;28;19912;-70
2024/02/01 01:23:43;;;;;;;;;;;;;;;;;;5095276;28;19920;-70
2024/02/01 01:26:09;;;;;;;;;;;;;;;;;;5095819;28;19908;-70
2024/02/01 01:28:35;;;;;;;;;;;;;;;;;;5095934;28;19912;-71
2024/02/01 01:31:01;;;;;;;;;;;;;;;;;;5077139;28;19908;-71
2024/02/01 01:33:27;;;;;;;;;;;;;;;;;;5077556;28;19951;-71
2024/02/01 01:35:53;;;;;;;;;;;;;;;;;;5095660;28;19909;-71
2024/02/01 01:38:19;;;;;;;;;;;;;;;;;;5095171;28;19908;-71
2024/02/01 01:40:45;;;;;;;;;;;;;;;;;;5096015;28;20356;-71
2024/02/01 01:43:11;;;;;;;;;;;;;;;;;;5095425;28;20006;-71
2024/02/01 01:45:37;;;;;;;;;;;;;;;;;;5095019;28;19915;-71
2024/02/01 01:48:03;;;;;;;;;;;;;;;;;;5094494;28;19995;-71
2024/02/01 01:50:29;;;;;;;;;;;;;;;;;;5095938;28;19923;-71
2024/02/01 01:52:55;;;;;;;;;;;;;;;;;;5094847;28;19912;-70
2024/02/01 01:55:21;;;;;;;;;;;;;;;;;;5077125;28;19912;-71
2024/02/01 01:57:48;;;;;;;;;;;;;;;;;;5095093;28;19908;-71
2024/02/01 02:00:14;;;;;;;;;;;;;;;;;;5094737;28;20271;-71
2024/02/01 02:02:40;;;;;;;;;;;;;;;;;;5095663;28;20249;-70
2024/02/01 02:05:06;;;;;;;;;;;;;;;;;;5094686;28;19958;-70
2024/02/01 02:07:32;;;;;;;;;;;;;;;;;;5094168;28;19908;-70
2024/02/01 02:10:00;;;;;;;;;;;;;;;;;;5094998;28;19908;-71
2024/02/01 02:12:26;;;;;;;;;;;;;;;;;;5094745;28;20391;-71
2024/02/01 02:14:52;;;;;;;;;;;;;;;;;;5094895;28;19907;-70
2024/02/01 02:17:18;;;;;;;;;;;;;;;;;;5094887;28;19915;-70
2024/02/01 02:19:45;;;;;;;;;;;;;;;;;;5094442;28;19912;-71
2024/02/01 02:22:12;;;;;;;;;;;;;;;;;;5094709;28;19912;-70
2024/02/01 02:24:38;;;;;;;;;;;;;;;;;;5094864;28;19916;-71
2024/02/01 02:27:04;;;;;;;;;;;;;;;;;;5094346;28;20386;-70
2024/02/01 02:29:30;;;;;;;;;;;;;;;;;;5094636;28;20283;-70
2024/02/01 02:31:56;;;;;;;;;;;;;;;;;;5094923;28;19909;-70
2024/02/01 02:34:22;;;;;;;;;;;;;;;;;;5094284;28;19933;-71
2024/02/01 02:36:48;;;;;;;;;;;;;;;;;;5094655;28;19909;-71
2024/02/01 02:39:14;;;;;;;;;;;;;;;;;;5094422;28;19999;-71
2024/02/01 02:41:40;;;;;;;;;;;;;;;;;;5094232;28;19909;-71
2024/02/01 02:44:10;;;;;;;;;;;;;;;;;;5094226;28;19916;-71
2024/02/01 02:46:36;;;;;;;;;;;;;;;;;;5094315;28;19908;-71
2024/02/01 02:49:02;;;;;;;;;;;;;;;;;;5093924;28;19908;-71
2024/02/01 02:51:28;;;;;;;;;;;;;;;;;;5094533;28;20467;-71
2024/02/01 02:53:54;;;;;;;;;;;;;;;;;;5094376;28;19931;-71
2024/02/01 02:56:20;;;;;;;;;;;;;;;;;;5093819;28;19908;-71
2024/02/01 02:58:46;;;;;;;;;;;;;;;;;;5094160;28;19943;-71
2024/02/01 03:01:12;;;;;;;;;;;;;;;;;;5075515;28;19908;-71
2024/02/01 03:03:40;;;;;;;;;;;;;;;;;;5093830;28;20300;-71
2024/02/01 03:06:06;;;;;;;;;;;;;;;;;;5093952;28;20356;-71
2024/02/01 03:08:32;;;;;;;;;;;;;;;;;;5093775;28;19923;-71
2024/02/01 03:10:58;;;;;;;;;;;;;;;;;;5094047;28;19915;-72
2024/02/01 03:13:23;;;;;;;;;;;;;;;;;;5094150;28;20253;-71
2024/02/01 03:15:49;;;;;;;;;;;;;;;;;;5093523;28;19912;-71
2024/02/01 03:18:15;;;;;;;;;;;;;;;;;;5093913;28;19908;-71
2024/02/01 03:20:44;;;;;;;;;;;;;;;;;;5094110;28;19908;-71
2024/02/01 03:23:10;;;;;;;;;;;;;;;;;;5093059;28;19931;-71
2024/02/01 03:25:39;;;;;;;;;;;;;;;;;;5075717;28;19947;-71
2024/02/01 03:28:05;;;;;;;;;;;;;;;;;;5093767;28;20379;-70
2024/02/01 03:30:31;;;;;;;;;;;;;;;;;;5093355;28;19916;-71
2024/02/01 03:32:57;;;;;;;;;;;;;;;;;;5093804;28;19915;-71
2024/02/01 03:35:23;;;;;;;;;;;;;;;;;;5093720;28;20315;-71
2024/02/01 03:37:49;;;;;;;;;;;;;;;;;;5093287;28;19909;-71
2024/02/01 03:40:18;;;;;;;;;;;;;;;;;;5093656;28;19908;-71
2024/02/01 03:42:45;;;;;;;;;;;;;;;;;;5093606;28;19908;-71
2024/02/01 03:45:11;;;;;;;;;;;;;;;;;;5093217;28;19938;-71
2024/02/01 03:47:37;;;;;;;;;;;;;;;;;;5093875;28;20358;-71
2024/02/01 03:50:03;;;;;;;;;;;;;;;;;;5093626;28;20011;-71
2024/02/01 03:52:29;;;;;;;;;;;;;;;;;;5074978;28;20360;-71
2024/02/01 03:54:55;;;;;;;;;;;;;;;;;;5093512;28;20326;-71
2024/02/01 03:57:21;;;;;;;;;;;;;;;;;;5093451;28;19987;-71
2024/02/01 03:59:47;;;;;;;;;;;;;;;;;;5075034;28;20275;-71
2024/02/01 04:02:15;;;;;;;;;;;;;;;;;;5093500;28;19908;-71
2024/02/01 04:04:45;;;;;;;;;;;;;;;;;;5074878;28;19969;-71
2024/02/01 04:07:15;;;;;;;;;;;;;;;;;;5075415;28;19950;-71
2024/02/01 04:09:41;;;;;;;;;;;;;;;;;;5093985;28;20294;-72
2024/02/01 04:12:07;;;;;;;;;;;;;;;;;;5074871;28;19912;-72
2024/02/01 04:14:33;;;;;;;;;;;;;;;;;;5093336;28;20283;-71
2024/02/01 04:16:59;;;;;;;;;;;;;;;;;;5093403;28;19908;-72
2024/02/01 04:19:25;;;;;;;;;;;;;;;;;;5092940;28;19959;-71
2024/02/01 04:21:51;;;;;;;;;;;;;;;;;;5093288;28;20387;-71
2024/02/01 04:24:17;;;;;;;;;;;;;;;;;;5074930;28;20353;-71
2024/02/01 04:26:43;;;;;;;;;;;;;;;;;;5092835;28;19908;-71
2024/02/01 04:29:10;;;;;;;;;;;;;;;;;;5093120;28;19908;-72
2024/02/01 04:31:35;;;;;;;;;;;;;;;;;;5095692;28;19909;-71
2024/02/01 04:34:01;;;;;;;;;;;;;;;;;;5096518;28;19960;-71
2024/02/01 04:36:27;;;;;;;;;;;;;;;;;;5096894;28;19916;-71
2024/02/01 04:38:54;;;;;;;;;;;;;;;;;;5097260;28;20486;-72
2024/02/01 04:41:20;;;;;;;;;;;;;;;;;;5096404;28;20368;-71
2024/02/01 04:43:46;;;;;;;;;;;;;;;;;;5096791;28;19927;-71
2024/02/01 04:46:12;;;;;;;;;;;;;;;;;;5096649;28;19908;-71
2024/02/01 04:48:38;;;;;;;;;;;;;;;;;;5095400;28;19908;-72
2024/02/01 04:51:04;;;;;;;;;;;;;;;;;;5096590;28;19908;-72
2024/02/01 04:53:29;;;;;;;;;;;;;;;;;;5096577;28;19908;-71
2024/02/01 04:55:55;;;;;;;;;;;;;;;;;;5096088;28;20322;-72
2024/02/01 04:58:22;;;;;;;;;;;;;;;;;;5096375;28;19920;-71
2024/02/01 05:00:49;;;;;;;;;;;;;;;;;;5096162;28;19992;-71
2024/02/01 05:03:15;;;;;;;;;;;;;;;;;;5096747;28;19923;-71
2024/02/01 05:05:45;;;;;;;;;;;;;;;;;;5096228;28;20327;-71
2024/02/01 05:08:11;;;;;;;;;;;;;;;;;;5095793;28;19908;-72
2024/02/01 05:10:38;;;;;;;;;;;;;;;;;;5096163;28;20394;-71
2024/02/01 05:13:05;;;;;;;;;;;;;;;;;;5096074;28;19957;-71
2024/02/01 05:15:31;;;;;;;;;;;;;;;;;;5077464;28;19908;-70
2024/02/01 05:17:57;;;;;;;;;;;;;;;;;;5096060;28;20058;-70
2024/02/01 05:20:24;;;;;;;;;;;;;;;;;;5077669;28;19915;-70
2024/02/01 05:22:50;;;;;;;;;;;;;;;;;;5093813;28;19927;-71
2024/02/01 05:25:19;;;;;;;;;;;;;;;;;;5094609;28;19916;-71
2024/02/01 05:27:45;;;;;;;;;;;;;;;;;;5095339;28;19919;-72
2024/02/01 05:30:11;;;;;;;;;;;;;;;;;;5095413;28;19915;-72
2024/02/01 05:32:48;;;;;;;;;;;;;;;;;;5094674;28;19908;-72
2024/02/01 05:35:14;;;;;;;;;;;;;;;;;;5095289;28;19954;-71
2024/02/01 05:37:46;;;;;;;;;;;;;;;;;;5095232;28;19908;-72
2024/02/01 05:40:16;;;;;;;;;;;;;;;;;;5076419;28;20257;-71
2024/02/01 05:42:42;;;;;;;;;;;;;;;;;;5077230;28;19957;-72
2024/02/01 05:45:08;;;;;;;;;;;;;;;;;;5076845;28;19916;-71
2024/02/01 05:47:34;;;;;;;;;;;;;;;;;;5095232;28;20047;-72
2024/02/01 05:50:00;;;;;;;;;;;;;;;;;;5094002;28;19908;-71
2024/02/01 05:52:26;;;;;;;;;;;;;;;;;;5093903;28;19908;-71
2024/02/01 05:54:54;;;;;;;;;;;;;;;;;;5094946;28;19999;-71
2024/02/01 05:57:20;;;;;;;;;;;;;;;;;;5094870;28;20018;-71
2024/02/01 05:59:46;;;;;;;;;;;;;;;;;;5095268;28;19915;-71
2024/02/01 06:02:12;;;;;;;;;;;;;;;;;;5075391;28;20356;-71
2024/02/01 06:04:38;;;;;;;;;;;;;;;;;;5092553;28;19923;-72
2024/02/01 06:07:07;;;;;;;;;;;;;;;;;;5092990;28;19915;-71
2024/02/01 06:09:33;;;;;;;;;;;;;;;;;;5092968;28;19954;-71
2024/02/01 06:11:59;;;;;;;;;;;;;;;;;;5092455;28;19908;-71
2024/02/01 06:14:25;;;;;;;;;;;;;;;;;;5089777;28;20322;-68
2024/02/01 06:16:51;;;;;;;;;;;;;;;;;;5092528;28;19914;-72
2024/02/01 06:19:18;;;;;;;;;;;;;;;;;;5092024;28;20281;-73
2024/02/01 06:21:44;;;;;;;;;;;;;;;;;;5083963;28;20380;-71
2024/02/01 06:24:10;;;;;;;;;;;;;;;;;;5092883;28;20422;-73
2024/02/01 06:26:36;;;;;;;;;;;;;;;;;;5093425;28;19912;-72
2024/02/01 06:29:09;;;;;;;;;;;;;;;;;;5075140;28;19912;-73
2024/02/01 06:31:38;;;;;;;;;;;;;;;;;;5093649;28;19908;-74
2024/02/01 06:34:04;;;;;;;;;;;;;;;;;;5075122;28;19915;-74
2024/02/01 06:36:34;;;;;;;;;;;;;;;;;;5090416;28;19935;-67
2024/02/01 06:41:46;;;;;;;;;;;;;;;;;;5091018;28;19913;-70
2024/02/01 06:44:21;;;;;;;;;;;;;;;;;;5086193;28;19926;-69
2024/02/01 06:49:28;;;;;;;;;;;;;;;;;;5093724;28;19954;-69
2024/02/01 06:52:02;;;;;;;;;;;;;;;;;;5086913;28;19959;-70
2024/02/01 06:57:18;;;;;;;;;;;;;;;;;;5092431;28;19997;-69
2024/02/01 07:00:06;;;;;;;;;;;;;;;;;;5086004;28;20288;-70
2024/02/01 07:02:47;;;;;;;;;;;;;;;;;;5083503;28;19920;-72
2024/02/01 07:05:25;;;;;;;;;;;;;;;;;;5090102;28;19920;-69
2024/02/01 07:07:51;;;;;;;;;;;;;;;;;;5091612;28;19909;-71
2024/02/01 07:10:19;;;;;;;;;;;;;;;;;;5090757;28;19912;-69
2024/02/01 07:13:07;;;;;;;;;;;;;;;;;;5092216;28;19912;-69
2024/02/01 07:15:33;;;;;;;;;;;;;;;;;;5088471;28;19919;-69
2024/02/01 07:18:03;;;;;;;;;;;;;;;;;;5066948;28;19916;-72
2024/02/01 07:25:48;;;;;;;;;;;;;;;;;;5090804;28;19912;-70
2024/02/01 07:58:29;;;;;;;;;;;;;;;;;;5086950;28;19957;-71
2024/02/01 08:00:56;;;;;;;;;;;;;;;;;;5088673;28;20406;-70
2024/02/01 08:03:32;;;;;;;;;;;;;;;;;;5066648;28;19924;-70
2024/02/01 08:08:42;;;;;;;;;;;;;;;;;;5086386;28;19962;-69
2024/02/01 08:11:08;;;;;;;;;;;;;;;;;;5096116;28;19939;-70
2024/02/01 08:13:35;;;;;;;;;;;;;;;;;;5094579;28;19930;-68
2024/02/01 08:16:02;;;;;;;;;;;;;;;;;;5096017;28;19912;-70
2024/02/01 08:18:34;;;;;;;;;;;;;;;;;;5077671;28;20287;-70
2024/02/01 08:21:00;;;;;;;;;;;;;;;;;;5096086;28;19961;-70
2024/02/01 08:23:26;;;;;;;;;;;;;;;;;;5096287;28;20330;-69
2024/02/01 08:25:52;;;;;;;;;;;;;;;;;;5095549;28;19912;-70
2024/02/01 08:28:18;;;;;;;;;;;;;;;;;;5096196;28;19908;-72
2024/02/01 08:30:48;;;;;;;;;;;;;;;;;;5092952;28;19923;-71
2024/02/01 08:33:19;;;;;;;;;;;;;;;;;;5097850;28;20322;-69
2024/02/01 08:35:45;;;;;;;;;;;;;;;;;;5089082;28;19917;-70
2024/02/01 08:38:11;;;;;;;;;;;;;;;;;;5080623;28;19961;-70
2024/02/01 08:40:40;;;;;;;;;;;;;;;;;;5095499;28;19979;-72
2024/02/01 08:43:06;;;;;;;;;;;;;;;;;;5089511;28;19916;-71
2024/02/01 08:45:37;;;;;;;;;;;;;;;;;;5077064;28;19913;-71
2024/02/01 08:48:03;;;;;;;;;;;;;;;;;;5076804;28;19912;-71
2024/02/01 08:50:29;;;;;;;;;;;;;;;;;;5076780;28;20344;-70
2024/02/01 08:52:55;;;;;;;;;;;;;;;;;;5075973;28;19958;-72
2024/02/01 08:55:21;;;;;;;;;;;;;;;;;;5080905;28;19916;-69
2024/02/01 08:57:47;;;;;;;;;;;;;;;;;;5090425;28;19942;-72
2024/02/01 09:00:26;;;;;;;;;;;;;;;;;;5087897;28;20400;-69
2024/02/01 09:03:03;;;;;;;;;;;;;;;;;;5074819;28;19912;-70
2024/02/01 09:05:29;;;;;;;;;;;;;;;;;;5080230;28;19917;-68
2024/02/01 09:07:56;;;;;;;;;;;;;;;;;;5085016;28;19918;-69
2024/02/01 09:10:22;;;;;;;;;;;;;;;;;;5095401;28;20386;-69
2024/02/01 09:12:49;;;;;;;;;;;;;;;;;;5091854;28;19959;-71
2024/02/01 09:15:21;;;;;;;;;;;;;;;;;;5091320;28;20280;-70
2024/02/01 09:17:46;;;;;;;;;;;;;;;;;;5076348;28;19920;-69
2024/02/01 09:20:20;;;;;;;;;;;;;;;;;;5077112;28;20033;-69
2024/02/01 09:22:48;;;;;;;;;;;;;;;;;;5094263;28;19917;-69
2024/02/01 09:25:14;;;;;;;;;;;;;;;;;;5081773;28;19912;-71
2024/02/01 09:27:40;;;;;;;;;;;;;;;;;;5093041;28;20018;-69
2024/02/01 09:30:06;;;;;;;;;;;;;;;;;;5097599;28;20386;-70
2024/02/01 09:32:33;;;;;;;;;;;;;;;;;;5096178;28;19912;-69
2024/02/01 09:35:00;;;;;;;;;;;;;;;;;;5075920;28;19919;-71
2024/02/01 09:37:26;;;;;;;;;;;;;;;;;;5077900;28;19920;-69
2024/02/01 09:39:52;;;;;;;;;;;;;;;;;;5094541;28;19916;-69
2024/02/01 09:42:18;;;;;;;;;;;;;;;;;;5093611;28;19912;-69
2024/02/01 09:44:45;;;;;;;;;;;;;;;;;;5088785;28;19928;-70
2024/02/01 09:47:12;;;;;;;;;;;;;;;;;;5091188;28;19912;-69
2024/02/01 09:49:38;;;;;;;;;;;;;;;;;;5076498;28;19912;-70
2024/02/01 09:52:09;;;;;;;;;;;;;;;;;;5093736;28;19958;-73
2024/02/01 09:54:37;;;;;;;;;;;;;;;;;;5089853;28;20006;-69
2024/02/01 09:57:03;;;;;;;;;;;;;;;;;;5090297;28;19970;-69
2024/02/01 09:59:29;;;;;;;;;;;;;;;;;;5091738;28;19920;-69
2024/02/01 10:01:56;;;;;;;;;;;;;;;;;;5086337;28;19915;-69
2024/02/01 10:04:22;;;;;;;;;;;;;;;;;;5088111;28;19919;-69
2024/02/01 10:06:48;;;;;;;;;;;;;;;;;;5082846;28;19919;-69
2024/02/01 10:09:25;;;;;;;;;;;;;;;;;;5087527;28;19934;-69
2024/02/01 10:11:54;;;;;;;;;;;;;;;;;;5090068;28;19955;-71
2024/02/01 10:14:23;;;;;;;;;;;;;;;;;;5091498;28;19966;-71
2024/02/01 10:16:49;;;;;;;;;;;;;;;;;;5068496;28;19911;-71
2024/02/01 10:19:15;;;;;;;;;;;;;;;;;;5091097;28;20018;-69
2024/02/01 10:21:40;;;;;;;;;;;;;;;;;;5092218;28;19908;-70
2024/02/01 10:24:06;;;;;;;;;;;;;;;;;;5103591;28;19920;-73
2024/02/01 10:26:32;;;;;;;;;;;;;;;;;;5085709;28;19951;-72
2024/02/01 10:28:58;;;;;;;;;;;;;;;;;;5089900;28;19997;-72
2024/02/01 10:31:24;;;;;;;;;;;;;;;;;;5091377;28;19927;-71
2024/02/01 10:33:50;;;;;;;;;;;;;;;;;;5086922;28;19958;-71
2024/02/01 10:36:16;;;;;;;;;;;;;;;;;;5089019;28;19923;-69
2024/02/01 10:38:44;;;;;;;;;;;;;;;;;;5072663;28;20003;-70
2024/02/01 10:41:14;;;;;;;;;;;;;;;;;;5091514;28;19998;-68
2024/02/01 10:43:41;;;;;;;;;;;;;;;;;;5091520;28;19926;-69
2024/02/01 10:46:07;;;;;;;;;;;;;;;;;;5091432;28;19912;-69
2024/02/01 10:48:34;;;;;;;;;;;;;;;;;;5091793;28;20009;-70
2024/02/01 10:50:59;;;;;;;;;;;;;;;;;;5091245;28;19918;-69
2024/02/01 10:53:25;;;;;;;;;;;;;;;;;;5091900;28;19912;-69
2024/02/01 10:55:51;;;;;;;;;;;;;;;;;;5073745;28;19923;-69
2024/02/01 10:58:17;;;;;;;;;;;;;;;;;;5075399;28;19990;-67
2024/02/01 11:00:43;;;;;;;;;;;;;;;;;;5082224;28;20376;-68
2024/02/01 11:03:11;;;;;;;;;;;;;;;;;;5090781;28;19962;-69
2024/02/01 11:05:37;;;;;;;;;;;;;;;;;;5092083;28;19916;-68
2024/02/01 11:08:03;;;;;;;;;;;;;;;;;;5092151;28;19912;-68
2024/02/01 11:10:29;;;;;;;;;;;;;;;;;;5092732;28;20398;-69
2024/02/01 11:12:55;;;;;;;;;;;;;;;;;;5091242;28;19920;-70
2024/02/01 11:15:22;;;;;;;;;;;;;;;;;;5091483;28;19919;-68
2024/02/01 11:17:48;;;;;;;;;;;;;;;;;;5070543;28;19912;-68
2024/02/01 11:20:14;;;;;;;;;;;;;;;;;;5080798;28;20408;-72
2024/02/01 11:22:40;;;;;;;;;;;;;;;;;;5069241;28;19916;-72
2024/02/01 11:25:06;;;;;;;;;;;;;;;;;;5065761;28;19989;-69
2024/02/01 11:27:36;;;;;;;;;;;;;;;;;;5087420;28;19934;-68
2024/02/01 11:30:19;;;;;;;;;;;;;;;;;;5091935;28;20314;-68
2024/02/01 11:32:46;;;;;;;;;;;;;;;;;;5089896;28;19920;-68
2024/02/01 11:35:15;;;;;;;;;;;;;;;;;;5089587;28;19912;-67
2024/02/01 11:37:41;;;;;;;;;;;;;;;;;;5088421;28;20272;-68
2024/02/01 11:40:48;;;;;;;;;;;;;;;;;;5086344;27;19921;-66
2024/02/01 11:43:14;;;;;;;;;;;;;;;;;;5086004;28;20369;-68
2024/02/01 11:45:40;;;;;;;;;;;;;;;;;;5087158;28;19916;-67
2024/02/01 11:50:02;;;;;;;;;;;;;;;;;;5085944;27;19922;-67
2024/02/01 11:52:29;;;;;;;;;;;;;;;;;;5086265;28;20300;-68
2024/02/01 11:54:55;;;;;;;;;;;;;;;;;;5086490;28;20292;-66
2024/02/01 11:57:21;;;;;;;;;;;;;;;;;;5086424;28;19995;-68
2024/02/01 11:59:47;;;;;;;;;;;;;;;;;;5087088;28;19991;-68
2024/02/01 12:05:47;;;;;;;;;;;;;;;;;;5090699;27;19921;-66
2024/02/01 12:09:20;;;;;;;;;;;;;;;;;;5088030;28;19917;-67
2024/02/01 12:11:46;;;;;;;;;;;;;;;;;;5088430;28;19939;-67
2024/02/01 12:15:58;;;;;;;;;;;;;;;;;;5088339;28;19919;-67
2024/02/01 12:18:24;;;;;;;;;;;;;;;;;;5086972;28;19917;-67
2024/02/01 12:20:50;;;;;;;;;;;;;;;;;;5087204;28;20396;-66
2024/02/01 12:23:16;;;;;;;;;;;;;;;;;;5087964;28;20361;-67
2024/02/01 12:25:42;;;;;;;;;;;;;;;;;;5088652;28;19919;-68
2024/02/01 12:28:11;;;;;;;;;;;;;;;;;;5088451;28;19932;-68
2024/02/01 12:33:21;;;;;;;;;;;;;;;;;;5085942;27;19923;-67
2024/02/01 12:35:47;;;;;;;;;;;;;;;;;;5085131;28;20006;-67
2024/02/01 12:38:14;;;;;;;;;;;;;;;;;;5084947;28;19908;-66
2024/02/01 12:40:40;;;;;;;;;;;;;;;;;;5085219;28;19916;-67
2024/02/01 12:43:06;;;;;;;;;;;;;;;;;;5085147;28;19962;-67
2024/02/01 12:46:10;;;;;;;;;;;;;;;;;;5088102;27;19917;-67
2024/02/01 12:48:37;;;;;;;;;;;;;;;;;;5088670;28;19920;-67
2024/02/01 12:51:49;;;;;;;;;;;;;;;;;;5090785;27;20004;-66
2024/02/01 12:55:17;;;;;;;;;;;;;;;;;;5090478;28;19920;-68
2024/02/01 12:57:43;;;;;;;;;;;;;;;;;;5090887;28;19912;-67
2024/02/01 13:01:43;;;;;;;;;;;;;;;;;;5110975;27;20011;-67
2024/02/01 13:04:09;;;;;;;;;;;;;;;;;;5111939;28;21269;-66
2024/02/01 13:06:35;;;;;;;;;;;;;;;;;;5092442;28;19916;-66
2024/02/01 13:12:28;;;;;;;;;;;;;;;;;;5156218;27;19922;-67
2024/02/01 13:16:04;;;;;;;;;;;;;;;;;;5111582;27;19916;-68
2024/02/01 13:18:30;;;;;;;;;;;;;;;;;;5112377;28;19912;-66
2024/02/01 13:23:24;;;;;;;;;;;;;;;;;;5090772;27;20300;-67
2024/02/01 13:25:50;;;;;;;;;;;;;;;;;;5091119;28;20300;-67
2024/02/01 13:29:31;;;;;;;;;;;;;;;;;;5089558;27;19916;-67
2024/02/01 13:31:57;;;;;;;;;;;;;;;;;;5088407;28;19922;-67
2024/02/01 13:36:57;;;;;;;;;;;;;;;;;;5089385;28;19924;-67
2024/02/01 13:39:57;;;;;;;;;;;;;;;;;;5089498;27;19921;-66
2024/02/01 13:42:23;;;;;;;;;;;;;;;;;;5087786;28;19916;-68
2024/02/01 13:44:49;;;;;;;;;;;;;;;;;;5089017;28;19966;-67
2024/02/01 13:47:15;;;;;;;;;;;;;;;;;;5082851;28;19913;-67
2024/02/01 13:52:18;;;;;;;;;;;;;;;;;;5090393;27;19938;-66
2024/02/01 13:54:44;;;;;;;;;;;;;;;;;;5083752;28;19936;-65
2024/02/01 13:57:10;;;;;;;;;;;;;;;;;;5078160;28;19909;-67
2024/02/01 13:59:36;;;;;;;;;;;;;;;;;;5068852;28;20223;-68
2024/02/01 14:02:02;;;;;;;;;;;;;;;;;;5081724;28;19916;-68
2024/02/01 14:04:28;;;;;;;;;;;;;;;;;;5072128;28;19913;-67
2024/02/01 14:06:54;;;;;;;;;;;;;;;;;;5087310;28;19913;-67
2024/02/01 14:09:22;;;;;;;;;;;;;;;;;;5080859;28;19919;-68
2024/02/01 14:11:48;;;;;;;;;;;;;;;;;;5069653;28;19943;-69
2024/02/01 14:14:14;;;;;;;;;;;;;;;;;;5069296;28;20376;-70
2024/02/01 14:16:40;;;;;;;;;;;;;;;;;;5074071;28;20773;-68
2024/02/01 14:19:06;;;;;;;;;;;;;;;;;;5085682;28;19920;-68
2024/02/01 14:21:32;;;;;;;;;;;;;;;;;;5077034;28;19982;-68
2024/02/01 14:23:59;;;;;;;;;;;;;;;;;;5085453;28;19912;-67
2024/02/01 14:29:58;;;;;;;;;;;;;;;;;;5089036;28;19917;-69
2024/02/01 14:32:24;;;;;;;;;;;;;;;;;;5088717;28;19918;-69
2024/02/01 14:36:54;;;;;;;;;;;;;;;;;;5089122;27;19912;-69
2024/02/01 14:39:20;;;;;;;;;;;;;;;;;;5089299;28;19919;-69
2024/02/01 14:41:46;;;;;;;;;;;;;;;;;;5091053;28;19934;-69
2024/02/01 14:44:49;;;;;;;;;;;;;;;;;;5091033;27;20409;-69
2024/02/01 14:47:15;;;;;;;;;;;;;;;;;;5091745;28;19916;-70
2024/02/01 14:49:41;;;;;;;;;;;;;;;;;;5089853;28;20004;-70
2024/02/01 14:52:10;;;;;;;;;;;;;;;;;;5090734;28;19908;-70
2024/02/01 14:54:36;;;;;;;;;;;;;;;;;;5091100;28;19908;-70
2024/02/01 14:57:02;;;;;;;;;;;;;;;;;;5090999;28;19915;-69
2024/02/01 14:59:28;;;;;;;;;;;;;;;;;;5090612;28;19952;-70
2024/02/01 15:03:09;;;;;;;;;;;;;;;;;;5153341;27;19994;-70
2024/02/01 15:05:36;;;;;;;;;;;;;;;;;;5152558;27;19937;-69
2024/02/01 15:10:14;;;;;;;;;;;;;;;;;;5091380;27;19939;-69
2024/02/01 15:12:40;;;;;;;;;;;;;;;;;;5090897;28;19966;-69
2024/02/01 15:15:06;;;;;;;;;;;;;;;;;;5091189;28;19916;-69
2024/02/01 15:19:53;;;;;;;;;;;;;;;;;;5153012;27;19998;-69
2024/02/01 15:22:19;;;;;;;;;;;;;;;;;;5152818;27;19998;-69
2024/02/01 15:25:40;;;;;;;;;;;;;;;;;;5092107;27;19913;-69
2024/02/01 15:28:07;;;;;;;;;;;;;;;;;;5090942;28;20007;-69
2024/02/01 15:30:33;;;;;;;;;;;;;;;;;;5089926;28;19908;-69
2024/02/01 15:32:59;;;;;;;;;;;;;;;;;;5089789;28;19930;-69
2024/02/01 15:35:29;;;;;;;;;;;;;;;;;;5090764;28;20392;-69
2024/02/01 15:37:55;;;;;;;;;;;;;;;;;;5091098;28;19908;-69
2024/02/01 15:40:26;;;;;;;;;;;;;;;;;;5090999;28;19908;-69
2024/02/01 15:42:52;;;;;;;;;;;;;;;;;;5090488;28;19920;-69
2024/02/01 15:45:18;;;;;;;;;;;;;;;;;;5090752;28;19920;-69
2024/02/01 15:47:44;;;;;;;;;;;;;;;;;;5090991;28;19909;-70
2024/02/01 15:50:10;;;;;;;;;;;;;;;;;;5090440;28;19916;-70
2024/02/01 15:52:36;;;;;;;;;;;;;;;;;;5091025;28;19955;-69
2024/02/01 15:55:02;;;;;;;;;;;;;;;;;;5090347;28;19954;-69
2024/02/01 15:57:28;;;;;;;;;;;;;;;;;;5089424;28;19918;-70
2024/02/01 15:59:54;;;;;;;;;;;;;;;;;;5090608;28;19998;-70
2024/02/01 16:02:20;;;;;;;;;;;;;;;;;;5090161;28;20003;-70
2024/02/01 16:04:46;;;;;;;;;;;;;;;;;;5090387;28;19917;-69
2024/02/01 16:07:12;;;;;;;;;;;;;;;;;;5090303;28;19931;-71
2024/02/01 16:09:38;;;;;;;;;;;;;;;;;;5089835;28;19919;-70
2024/02/01 16:12:04;;;;;;;;;;;;;;;;;;5089159;28;19909;-70
2024/02/01 16:14:32;;;;;;;;;;;;;;;;;;5088965;28;19909;-70
2024/02/01 16:16:58;;;;;;;;;;;;;;;;;;5088590;28;20019;-70
2024/02/01 16:19:24;;;;;;;;;;;;;;;;;;5090285;28;19913;-70
2024/02/01 16:21:52;;;;;;;;;;;;;;;;;;5090240;28;19945;-69
2024/02/01 16:24:18;;;;;;;;;;;;;;;;;;5098846;28;20315;-70
2024/02/01 16:26:43;;;;;;;;;;;;;;;;;;5110853;28;19908;-70
2024/02/01 16:29:10;;;;;;;;;;;;;;;;;;5110369;28;20360;-69
2024/02/01 16:31:36;;;;;;;;;;;;;;;;;;5092077;28;20022;-69
2024/02/01 16:34:03;;;;;;;;;;;;;;;;;;5110388;28;19915;-70
2024/02/01 16:36:29;;;;;;;;;;;;;;;;;;5099460;28;19915;-70
2024/02/01 16:38:56;;;;;;;;;;;;;;;;;;5096347;28;19908;-70
2024/02/01 16:41:22;;;;;;;;;;;;;;;;;;5096646;28;19961;-70
2024/02/01 16:43:49;;;;;;;;;;;;;;;;;;5096542;28;20287;-70
2024/02/01 16:46:15;;;;;;;;;;;;;;;;;;5096271;28;19942;-70
2024/02/01 16:48:41;;;;;;;;;;;;;;;;;;5095760;28;19912;-69
2024/02/01 16:51:07;;;;;;;;;;;;;;;;;;5095920;28;19996;-69
2024/02/01 16:53:33;;;;;;;;;;;;;;;;;;5096701;28;19908;-70
2024/02/01 16:55:59;;;;;;;;;;;;;;;;;;5096312;28;20128;-70
2024/02/01 16:58:25;;;;;;;;;;;;;;;;;;5096160;28;19919;-69
2024/02/01 17:00:51;;;;;;;;;;;;;;;;;;5096310;28;20372;-70
2024/02/01 17:03:19;;;;;;;;;;;;;;;;;;5096178;28;19908;-70
2024/02/01 17:05:45;;;;;;;;;;;;;;;;;;5095781;28;19913;-69
2024/02/01 17:08:11;;;;;;;;;;;;;;;;;;5096229;28;19915;-69
2024/02/01 17:10:37;;;;;;;;;;;;;;;;;;5096078;28;19994;-69
2024/02/01 17:13:05;;;;;;;;;;;;;;;;;;5095855;28;19908;-69
2024/02/01 17:15:31;;;;;;;;;;;;;;;;;;5096080;28;19909;-69
2024/02/01 17:17:57;;;;;;;;;;;;;;;;;;5096180;28;19915;-69
2024/02/01 17:20:23;;;;;;;;;;;;;;;;;;5095564;28;20300;-69
2024/02/01 17:22:49;;;;;;;;;;;;;;;;;;5077691;28;19915;-69
2024/02/01 17:25:15;;;;;;;;;;;;;;;;;;5095686;28;19920;-69
2024/02/01 17:27:43;;;;;;;;;;;;;;;;;;5095252;28;20287;-70
2024/02/01 17:30:09;;;;;;;;;;;;;;;;;;5096020;28;19916;-70
2024/02/01 17:32:35;;;;;;;;;;;;;;;;;;5095702;28;19908;-69
2024/02/01 17:35:01;;;;;;;;;;;;;;;;;;5095302;28;19954;-69
2024/02/01 17:37:27;;;;;;;;;;;;;;;;;;5071208;28;19909;-68
2024/02/01 17:39:54;;;;;;;;;;;;;;;;;;5084615;28;20322;-68
2024/02/01 17:42:20;;;;;;;;;;;;;;;;;;5083424;28;19915;-68
2024/02/01 17:44:46;;;;;;;;;;;;;;;;;;5084592;28;19943;-69
2024/02/01 17:47:12;;;;;;;;;;;;;;;;;;5084445;28;20322;-68
2024/02/01 17:49:39;;;;;;;;;;;;;;;;;;5062459;28;19968;-68
2024/02/01 17:52:05;;;;;;;;;;;;;;;;;;5080609;28;20281;-68
2024/02/01 17:54:31;;;;;;;;;;;;;;;;;;5083285;28;19908;-69
2024/02/01 17:56:58;;;;;;;;;;;;;;;;;;5093145;28;19915;-69
2024/02/01 17:59:24;;;;;;;;;;;;;;;;;;5093070;28;20257;-69
2024/02/01 18:01:50;;;;;;;;;;;;;;;;;;5092608;28;19954;-69
2024/02/01 18:04:16;;;;;;;;;;;;;;;;;;5092739;28;20407;-68
2024/02/01 18:06:43;;;;;;;;;;;;;;;;;;5093481;28;19908;-69
2024/02/01 18:09:11;;;;;;;;;;;;;;;;;;5093243;28;19915;-69
2024/02/01 18:11:37;;;;;;;;;;;;;;;;;;5093997;28;19908;-69